Aracena, Spain
Current Conditions -  °F | °C
As of 3:00 PM on Wednesday 26 Nov 2014 (Local Time) from LEZL Reporting Station
Scattered Clouds Scattered Clouds  
Wind Chill: 17°   Ceiling: Unl
Heat Index: 17°   Visibility: 6mi
Dew Point: 10°   Wind: 7mph
Humidity: 63%   Direction: 200°SSW
Pressure: 29.85"   Gusts: NA
Location:  37.89°N, 6.56°W
Report Text: LEZL 261400Z 20006KT 160V230 9999 FEW023 SCT030 17/10 Q1011 NOSIG
Loading
Personal Weather Stations






























Interactive Weather Map New forecast layout! Learn more

10-Day Weather Forecast

Advertisements
Track Severe Weather on mobile